sensor_id;sensor_type;location;lat;lon;timestamp;pressure;altitude;pressure_sealevel;temperature;humidity
9419;BME280;4748;50.802;7.132;2022-09-12T03:32:47;101043.63;;;13.67;100.00
9419;BME280;4748;50.802;7.132;2022-09-12T03:35:15;101044.25;;;13.69;100.00
9419;BME280;4748;50.802;7.132;2022-09-12T03:37:41;101044.94;;;13.64;100.00
9419;BME280;4748;50.802;7.132;2022-09-12T03:40:09;101045.19;;;13.74;100.00
9419;BME280;4748;50.802;7.132;2022-09-12T03:42:35;101053.63;;;13.77;100.00
9419;BME280;4748;50.802;7.132;2022-09-12T03:45:01;101043.88;;;13.76;100.00
9419;BME280;4748;50.802;7.132;2022-09-12T03:47:26;101047.63;;;13.64;100.00
9419;BME280;4748;50.802;7.132;2022-09-12T03:49:52;101044.00;;;13.70;100.00
9419;BME280;4748;50.802;7.132;2022-09-12T03:52:18;101044.81;;;13.71;100.00
9419;BME280;4748;50.802;7.132;2022-09-12T03:54:43;101042.72;;;13.73;100.00
9419;BME280;4748;50.802;7.132;2022-09-12T03:57:09;101045.53;;;13.77;100.00
9419;BME280;4748;50.802;7.132;2022-09-12T03:59:34;101043.47;;;13.79;100.00
9419;BME280;4748;50.802;7.132;2022-09-12T04:02:00;101030.34;;;13.83;100.00
9419;BME280;4748;50.802;7.132;2022-09-12T04:04:25;101041.69;;;13.85;100.00
9419;BME280;4748;50.802;7.132;2022-09-12T04:06:51;101036.06;;;13.86;100.00
9419;BME280;4748;50.802;7.132;2022-09-12T04:09:16;101038.19;;;13.84;100.00
9419;BME280;4748;50.802;7.132;2022-09-12T04:11:41;101033.34;;;13.75;100.00
9419;BME280;4748;50.802;7.132;2022-09-12T04:14:07;101031.13;;;13.72;100.00
9419;BME280;4748;50.802;7.132;2022-09-12T04:16:32;101031.50;;;13.76;100.00
9419;BME280;4748;50.802;7.132;2022-09-12T04:18:57;101027.88;;;13.70;100.00
9419;BME280;4748;50.802;7.132;2022-09-12T04:21:23;101027.97;;;13.75;100.00
9419;BME280;4748;50.802;7.132;2022-09-12T04:23:49;101032.09;;;13.77;100.00
9419;BME280;4748;50.802;7.132;2022-09-12T04:26:15;101035.38;;;13.79;100.00
9419;BME280;4748;50.802;7.132;2022-09-12T04:28:42;101024.81;;;13.78;100.00
9419;BME280;4748;50.802;7.132;2022-09-12T04:31:14;101027.66;;;13.83;100.00
9419;BME280;4748;50.802;7.132;2022-09-12T04:33:42;101030.56;;;13.81;100.00
9419;BME280;4748;50.802;7.132;2022-09-12T04:36:11;101025.91;;;13.77;100.00
9419;BME280;4748;50.802;7.132;2022-09-12T04:38:38;101024.16;;;13.82;100.00
9419;BME280;4748;50.802;7.132;2022-09-12T04:43:47;101028.34;;;13.78;100.00
9419;BME280;4748;50.802;7.132;2022-09-12T04:46:16;101026.69;;;13.77;100.00
9419;BME280;4748;50.802;7.132;2022-09-12T04:48:44;101030.66;;;13.75;100.00
9419;BME280;4748;50.802;7.132;2022-09-12T04:51:32;101030.56;;;13.70;100.00
9419;BME280;4748;50.802;7.132;2022-09-12T04:54:02;101027.41;;;13.73;100.00
9419;BME280;4748;50.802;7.132;2022-09-12T04:56:29;101018.97;;;13.70;100.00
9419;BME280;4748;50.802;7.132;2022-09-12T04:58:59;101015.94;;;13.77;100.00
9419;BME280;4748;50.802;7.132;2022-09-12T05:01:26;101010.44;;;13.73;100.00
9419;BME280;4748;50.802;7.132;2022-09-12T05:03:52;101005.06;;;13.73;100.00
9419;BME280;4748;50.802;7.132;2022-09-12T05:06:21;100998.13;;;13.65;100.00
9419;BME280;4748;50.802;7.132;2022-09-12T05:08:47;101003.28;;;13.78;100.00
9419;BME280;4748;50.802;7.132;2022-09-12T05:11:16;101014.53;;;13.75;100.00
9419;BME280;4748;50.802;7.132;2022-09-12T05:13:42;100999.94;;;13.82;100.00
9419;BME280;4748;50.802;7.132;2022-09-12T05:16:10;100995.59;;;13.81;100.00
9419;BME280;4748;50.802;7.132;2022-09-12T05:18:36;100993.22;;;13.74;100.00
9419;BME280;4748;50.802;7.132;2022-09-12T05:21:04;100998.13;;;13.76;100.00
9419;BME280;4748;50.802;7.132;2022-09-12T05:23:30;101002.25;;;13.90;100.00
9419;BME280;4748;50.802;7.132;2022-09-12T05:25:57;100997.25;;;13.94;100.00
9419;BME280;4748;50.802;7.132;2022-09-12T05:28:23;100996.66;;;14.03;100.00
9419;BME280;4748;50.802;7.132;2022-09-12T05:31:05;100996.41;;;14.05;100.00
9419;BME280;4748;50.802;7.132;2022-09-12T05:33:33;101005.19;;;14.00;100.00
9419;BME280;4748;50.802;7.132;2022-09-12T05:35:59;101011.47;;;14.12;100.00
9419;BME280;4748;50.802;7.132;2022-09-12T05:38:24;101002.31;;;14.13;100.00
9419;BME280;4748;50.802;7.132;2022-09-12T05:40:50;101007.22;;;14.16;100.00
9419;BME280;4748;50.802;7.132;2022-09-12T05:43:16;101005.38;;;14.28;100.00
9419;BME280;4748;50.802;7.132;2022-09-12T05:45:42;101004.28;;;14.29;100.00
9419;BME280;4748;50.802;7.132;2022-09-12T05:48:07;101006.63;;;14.37;100.00
9419;BME280;4748;50.802;7.132;2022-09-12T05:50:32;101005.44;;;14.44;100.00
9419;BME280;4748;50.802;7.132;2022-09-12T05:52:58;101015.16;;;14.57;100.00
9419;BME280;4748;50.802;7.132;2022-09-12T05:55:23;101012.69;;;14.67;100.00
9419;BME280;4748;50.802;7.132;2022-09-12T05:57:49;101019.47;;;14.80;100.00
9419;BME280;4748;50.802;7.132;2022-09-12T06:00:16;101025.41;;;14.94;100.00
9419;BME280;4748;50.802;7.132;2022-09-12T06:02:41;101027.34;;;15.10;100.00
9419;BME280;4748;50.802;7.132;2022-09-12T06:05:07;101031.09;;;15.20;100.00
9419;BME280;4748;50.802;7.132;2022-09-12T06:07:33;101039.47;;;15.35;100.00
9419;BME280;4748;50.802;7.132;2022-09-12T06:09:59;101026.09;;;15.56;100.00
9419;BME280;4748;50.802;7.132;2022-09-12T06:12:27;101036.28;;;15.66;100.00
9419;BME280;4748;50.802;7.132;2022-09-12T06:14:53;101034.00;;;15.74;100.00
9419;BME280;4748;50.802;7.132;2022-09-12T06:17:18;101036.69;;;15.90;100.00
9419;BME280;4748;50.802;7.132;2022-09-12T06:19:43;101040.16;;;16.02;100.00
9419;BME280;4748;50.802;7.132;2022-09-12T06:22:09;101030.81;;;16.10;100.00
9419;BME280;4748;50.802;7.132;2022-09-12T06:24:35;101039.81;;;16.15;100.00
9419;BME280;4748;50.802;7.132;2022-09-12T06:27:00;101035.41;;;16.09;100.00
9419;BME280;4748;50.802;7.132;2022-09-12T06:29:26;101039.03;;;16.15;100.00
9419;BME280;4748;50.802;7.132;2022-09-12T06:31:52;101038.53;;;16.34;100.00
9419;BME280;4748;50.802;7.132;2022-09-12T06:34:17;101037.38;;;16.30;100.00
9419;BME280;4748;50.802;7.132;2022-09-12T06:36:45;101038.53;;;16.34;100.00
9419;BME280;4748;50.802;7.132;2022-09-12T06:39:16;101032.63;;;16.37;100.00
9419;BME280;4748;50.802;7.132;2022-09-12T06:41:42;101043.09;;;16.50;100.00
9419;BME280;4748;50.802;7.132;2022-09-12T06:44:11;101041.78;;;16.52;100.00
9419;BME280;4748;50.802;7.132;2022-09-12T06:46:36;101041.22;;;16.50;100.00
9419;BME280;4748;50.802;7.132;2022-09-12T06:49:02;101042.59;;;16.53;100.00
9419;BME280;4748;50.802;7.132;2022-09-12T06:51:27;101050.31;;;16.82;100.00
9419;BME280;4748;50.802;7.132;2022-09-12T06:53:54;101051.94;;;16.62;100.00
9419;BME280;4748;50.802;7.132;2022-09-12T06:56:22;101056.78;;;16.81;100.00
9419;BME280;4748;50.802;7.132;2022-09-12T06:58:49;101045.03;;;16.92;100.00
9419;BME280;4748;50.802;7.132;2022-09-12T07:01:20;101046.72;;;16.98;100.00
9419;BME280;4748;50.802;7.132;2022-09-12T07:03:47;101042.06;;;17.15;100.00
9419;BME280;4748;50.802;7.132;2022-09-12T07:06:15;101032.28;;;17.30;100.00
9419;BME280;4748;50.802;7.132;2022-09-12T07:08:41;101033.56;;;17.49;100.00
9419;BME280;4748;50.802;7.132;2022-09-12T07:11:19;101030.41;;;17.57;100.00
9419;BME280;4748;50.802;7.132;2022-09-12T07:13:47;101033.72;;;17.64;100.00
9419;BME280;4748;50.802;7.132;2022-09-12T07:16:13;101043.97;;;17.88;100.00
9419;BME280;4748;50.802;7.132;2022-09-12T07:18:39;101038.63;;;17.67;100.00
9419;BME280;4748;50.802;7.132;2022-09-12T07:21:07;101049.81;;;17.75;100.00
9419;BME280;4748;50.802;7.132;2022-09-12T07:23:34;101032.69;;;18.01;100.00
9419;BME280;4748;50.802;7.132;2022-09-12T07:26:00;101044.44;;;18.11;100.00
9419;BME280;4748;50.802;7.132;2022-09-12T07:31:15;101053.34;;;18.33;100.00
9419;BME280;4748;50.802;7.132;2022-09-12T07:33:41;101057.31;;;18.62;100.00
9419;BME280;4748;50.802;7.132;2022-09-12T07:36:11;101052.94;;;18.56;100.00
9419;BME280;4748;50.802;7.132;2022-09-12T07:38:37;101055.19;;;18.74;100.00
9419;BME280;4748;50.802;7.132;2022-09-12T07:41:32;101050.75;;;18.53;100.00
9419;BME280;4748;50.802;7.132;2022-09-12T07:43:59;101053.06;;;18.76;100.00
9419;BME280;4748;50.802;7.132;2022-09-12T07:46:26;101049.03;;;18.83;100.00
9419;BME280;4748;50.802;7.132;2022-09-12T07:48:54;101052.53;;;18.84;100.00
9419;BME280;4748;50.802;7.132;2022-09-12T07:51:21;101039.34;;;19.02;100.00
9419;BME280;4748;50.802;7.132;2022-09-12T07:53:47;101047.31;;;19.23;100.00
9419;BME280;4748;50.802;7.132;2022-09-12T07:56:17;101042.47;;;19.30;100.00
9419;BME280;4748;50.802;7.132;2022-09-12T07:58:44;101051.22;;;19.57;100.00
9419;BME280;4748;50.802;7.132;2022-09-12T08:01:10;101045.28;;;19.70;100.00
9419;BME280;4748;50.802;7.132;2022-09-12T08:03:42;101051.56;;;19.80;100.00
9419;BME280;4748;50.802;7.132;2022-09-12T08:08:34;101053.22;;;20.01;100.00
9419;BME280;4748;50.802;7.132;2022-09-12T08:11:03;101055.97;;;19.96;100.00
9419;BME280;4748;50.802;7.132;2022-09-12T08:13:30;101053.22;;;20.21;100.00
9419;BME280;4748;50.802;7.132;2022-09-12T08:15:58;101050.53;;;20.06;100.00
9419;BME280;4748;50.802;7.132;2022-09-12T08:18:27;101061.38;;;20.21;100.00
9419;BME280;4748;50.802;7.132;2022-09-12T08:21:01;101058.94;;;20.24;100.00
9419;BME280;4748;50.802;7.132;2022-09-12T08:23:27;101057.00;;;20.54;100.00
9419;BME280;4748;50.802;7.132;2022-09-12T08:25:58;101052.34;;;20.75;100.00
9419;BME280;4748;50.802;7.132;2022-09-12T08:28:24;101044.38;;;21.03;100.00
9419;BME280;4748;50.802;7.132;2022-09-12T08:30:50;101050.00;;;21.21;100.00
9419;BME280;4748;50.802;7.132;2022-09-12T08:33:16;101042.81;;;21.45;100.00
9419;BME280;4748;50.802;7.132;2022-09-12T08:35:41;101048.56;;;21.39;100.00
9419;BME280;4748;50.802;7.132;2022-09-12T08:38:06;101052.53;;;21.03;100.00
9419;BME280;4748;50.802;7.132;2022-09-12T08:40:48;101046.06;;;20.94;100.00
9419;BME280;4748;50.802;7.132;2022-09-12T08:45:53;101056.63;;;21.05;100.00
9419;BME280;4748;50.802;7.132;2022-09-12T08:48:24;101046.16;;;21.32;100.00
9419;BME280;4748;50.802;7.132;2022-09-12T08:50:50;101049.22;;;21.21;100.00
9419;BME280;4748;50.802;7.132;2022-09-12T08:53:19;101043.09;;;21.39;100.00
9419;BME280;4748;50.802;7.132;2022-09-12T08:56:04;101045.47;;;21.65;100.00
9419;BME280;4748;50.802;7.132;2022-09-12T08:58:39;101045.09;;;21.76;100.00
9419;BME280;4748;50.802;7.132;2022-09-12T09:07:13;101028.47;;;21.78;100.00
9419;BME280;4748;50.802;7.132;2022-09-12T09:17:48;101032.88;;;22.07;100.00
9419;BME280;4748;50.802;7.132;2022-09-12T09:20:25;101024.84;;;22.25;100.00
9419;BME280;4748;50.802;7.132;2022-09-12T09:26:07;101019.75;;;22.42;100.00
9419;BME280;4748;50.802;7.132;2022-09-12T09:28:43;101009.53;;;22.76;100.00
9419;BME280;4748;50.802;7.132;2022-09-12T09:31:18;101008.41;;;22.82;100.00
9419;BME280;4748;50.802;7.132;2022-09-12T09:33:47;101004.44;;;22.93;100.00
9419;BME280;4748;50.802;7.132;2022-09-12T09:36:35;101002.06;;;22.86;100.00
9419;BME280;4748;50.802;7.132;2022-09-12T09:39:10;100999.81;;;22.93;100.00
9419;BME280;4748;50.802;7.132;2022-09-12T09:42:25;101002.69;;;23.02;100.00
9419;BME280;4748;50.802;7.132;2022-09-12T09:44:53;100995.81;;;23.27;100.00
9419;BME280;4748;50.802;7.132;2022-09-12T09:47:20;100997.44;;;23.47;100.00
9419;BME280;4748;50.802;7.132;2022-09-12T09:49:46;100995.16;;;23.54;100.00
9419;BME280;4748;50.802;7.132;2022-09-12T09:52:15;100991.50;;;23.58;100.00
9419;BME280;4748;50.802;7.132;2022-09-12T09:54:45;100988.16;;;23.66;100.00
9419;BME280;4748;50.802;7.132;2022-09-12T10:05:47;100977.81;;;24.26;100.00
9419;BME280;4748;50.802;7.132;2022-09-12T10:13:40;100968.84;;;24.08;93.23
9419;BME280;4748;50.802;7.132;2022-09-12T10:16:21;100964.81;;;24.18;98.72
9419;BME280;4748;50.802;7.132;2022-09-12T10:18:48;100971.91;;;24.38;100.00
9419;BME280;4748;50.802;7.132;2022-09-12T10:23:50;100967.53;;;24.50;96.25
9419;BME280;4748;50.802;7.132;2022-09-12T10:26:18;100969.56;;;24.58;100.00
9419;BME280;4748;50.802;7.132;2022-09-12T10:28:49;100962.69;;;24.61;100.00
9419;BME280;4748;50.802;7.132;2022-09-12T10:31:27;100959.09;;;24.60;91.26
9419;BME280;4748;50.802;7.132;2022-09-12T10:33:56;100956.59;;;24.64;99.09
9419;BME280;4748;50.802;7.132;2022-09-12T10:36:23;100951.81;;;24.69;99.93
9419;BME280;4748;50.802;7.132;2022-09-12T10:38:51;100938.75;;;24.66;100.00
9419;BME280;4748;50.802;7.132;2022-09-12T10:41:18;100945.50;;;24.68;100.00
9419;BME280;4748;50.802;7.132;2022-09-12T10:43:45;100936.41;;;24.46;99.03
9419;BME280;4748;50.802;7.132;2022-09-12T10:48:46;100942.78;;;24.68;98.36
9419;BME280;4748;50.802;7.132;2022-09-12T10:51:32;100942.47;;;24.70;85.73
9419;BME280;4748;50.802;7.132;2022-09-12T10:54:03;100938.63;;;24.71;96.63
9419;BME280;4748;50.802;7.132;2022-09-12T10:56:37;100935.44;;;24.91;92.08
9419;BME280;4748;50.802;7.132;2022-09-12T11:09:51;100910.50;;;24.65;76.74
9419;BME280;4748;50.802;7.132;2022-09-12T11:17:57;100904.00;;;24.75;85.38
9419;BME280;4748;50.802;7.132;2022-09-12T11:26:29;100877.63;;;24.65;76.90
9419;BME280;4748;50.802;7.132;2022-09-12T11:39:53;100887.75;;;24.92;83.52
9419;BME280;4748;50.802;7.132;2022-09-12T11:42:29;100876.16;;;24.95;70.74
9419;BME280;4748;50.802;7.132;2022-09-12T11:45:18;100871.28;;;25.05;65.16
9419;BME280;4748;50.802;7.132;2022-09-12T11:47:52;100866.63;;;24.92;73.35
9419;BME280;4748;50.802;7.132;2022-09-12T11:50:27;100858.09;;;24.94;73.76
9419;BME280;4748;50.802;7.132;2022-09-12T11:53:24;100861.75;;;24.89;65.44
9419;BME280;4748;50.802;7.132;2022-09-12T11:55:58;100864.50;;;24.89;73.21
9419;BME280;4748;50.802;7.132;2022-09-12T11:58:27;100856.47;;;24.93;79.40
9419;BME280;4748;50.802;7.132;2022-09-12T12:00:58;100860.44;;;25.00;76.68
9419;BME280;4748;50.802;7.132;2022-09-12T12:03:40;100853.66;;;25.19;72.24
9419;BME280;4748;50.802;7.132;2022-09-12T12:06:11;100851.75;;;25.20;73.85
9419;BME280;4748;50.802;7.132;2022-09-12T12:08:41;100844.47;;;25.16;72.83
9419;BME280;4748;50.802;7.132;2022-09-12T12:11:08;100846.19;;;25.12;76.52
9419;BME280;4748;50.802;7.132;2022-09-12T12:16:42;100835.22;;;24.98;57.91
9419;BME280;4748;50.802;7.132;2022-09-12T12:21:46;100842.44;;;25.29;65.42
9419;BME280;4748;50.802;7.132;2022-09-12T12:24:22;100843.84;;;25.40;63.09
9419;BME280;4748;50.802;7.132;2022-09-12T12:47:32;100811.03;;;25.57;68.32
9419;BME280;4748;50.802;7.132;2022-09-12T12:50:05;100804.44;;;25.58;69.72
9419;BME280;4748;50.802;7.132;2022-09-12T12:52:52;100803.44;;;25.54;59.43
9419;BME280;4748;50.802;7.132;2022-09-12T12:57:59;100797.75;;;25.72;68.94
9419;BME280;4748;50.802;7.132;2022-09-12T13:00:29;100782.81;;;25.65;69.88
9419;BME280;4748;50.802;7.132;2022-09-12T13:05:44;100783.31;;;25.37;61.80
9419;BME280;4748;50.802;7.132;2022-09-12T13:10:49;100771.34;;;25.63;63.33
9419;BME280;4748;50.802;7.132;2022-09-12T13:13:24;100759.91;;;25.61;62.62
9419;BME280;4748;50.802;7.132;2022-09-12T13:15:51;100767.94;;;25.58;69.57
9419;BME280;4748;50.802;7.132;2022-09-12T13:20:53;100753.16;;;25.67;63.61
9419;BME280;4748;50.802;7.132;2022-09-12T13:25:55;100748.28;;;25.64;65.43
9419;BME280;4748;50.802;7.132;2022-09-12T13:28:21;100753.44;;;25.66;69.54
9419;BME280;4748;50.802;7.132;2022-09-12T13:31:11;100748.91;;;25.61;58.88
9419;BME280;4748;50.802;7.132;2022-09-12T13:33:44;100752.28;;;25.58;65.78
9419;BME280;4748;50.802;7.132;2022-09-12T13:44:03;100738.97;;;25.73;67.80
9419;BME280;4748;50.802;7.132;2022-09-12T13:46:32;100736.13;;;25.87;69.94
9419;BME280;4748;50.802;7.132;2022-09-12T13:48:59;100738.69;;;25.83;69.01
9419;BME280;4748;50.802;7.132;2022-09-12T13:51:28;100731.63;;;25.91;67.66
9419;BME280;4748;50.802;7.132;2022-09-12T13:53:57;100726.78;;;25.88;69.16
9419;BME280;4748;50.802;7.132;2022-09-12T13:56:24;100734.69;;;25.89;69.07
9419;BME280;4748;50.802;7.132;2022-09-12T13:58:57;100737.59;;;25.93;68.54
9419;BME280;4748;50.802;7.132;2022-09-12T14:01:35;100728.44;;;26.06;69.72
9419;BME280;4748;50.802;7.132;2022-09-12T14:04:13;100728.09;;;26.07;62.18
9419;BME280;4748;50.802;7.132;2022-09-12T14:06:59;100730.69;;;26.04;67.69
9419;BME280;4748;50.802;7.132;2022-09-12T14:09:33;100736.34;;;26.07;66.48
9419;BME280;4748;50.802;7.132;2022-09-12T14:11:59;100737.81;;;26.13;70.19
9419;BME280;4748;50.802;7.132;2022-09-12T14:14:33;100729.22;;;26.06;65.13
9419;BME280;4748;50.802;7.132;2022-09-12T14:17:13;100734.72;;;25.98;66.68
9419;BME280;4748;50.802;7.132;2022-09-12T14:19:39;100725.69;;;26.06;69.49
9419;BME280;4748;50.802;7.132;2022-09-12T14:22:09;100719.56;;;26.09;65.91
9419;BME280;4748;50.802;7.132;2022-09-12T14:24:37;100698.59;;;26.21;69.97
9419;BME280;4748;50.802;7.132;2022-09-12T14:27:03;100705.69;;;26.22;67.72
9419;BME280;4748;50.802;7.132;2022-09-12T14:29:30;100706.66;;;26.18;70.09
9419;BME280;4748;50.802;7.132;2022-09-12T14:32:01;100698.41;;;26.26;66.45
9419;BME280;4748;50.802;7.132;2022-09-12T14:34:28;100703.28;;;26.29;69.88
9419;BME280;4748;50.802;7.132;2022-09-12T14:36:54;100692.34;;;26.37;68.63
9419;BME280;4748;50.802;7.132;2022-09-12T14:39:33;100694.38;;;26.23;63.23
9419;BME280;4748;50.802;7.132;2022-09-12T14:42:20;100691.47;;;26.28;61.83
9419;BME280;4748;50.802;7.132;2022-09-12T14:44:56;100686.34;;;26.35;60.38
9419;BME280;4748;50.802;7.132;2022-09-12T14:47:24;100683.78;;;26.39;65.81
9419;BME280;4748;50.802;7.132;2022-09-12T14:49:52;100681.97;;;26.34;66.61
9419;BME280;4748;50.802;7.132;2022-09-12T14:52:27;100675.34;;;26.35;60.11
9419;BME280;4748;50.802;7.132;2022-09-12T14:55:02;100681.81;;;26.31;60.67
9419;BME280;4748;50.802;7.132;2022-09-12T14:57:37;100667.75;;;26.32;61.61
9419;BME280;4748;50.802;7.132;2022-09-12T15:02:41;100658.69;;;26.23;62.26
9419;BME280;4748;50.802;7.132;2022-09-12T15:15:38;100658.50;;;26.20;65.02
9419;BME280;4748;50.802;7.132;2022-09-12T15:18:11;100647.69;;;26.15;65.63
9419;BME280;4748;50.802;7.132;2022-09-12T15:20:39;100647.69;;;26.15;65.92
9419;BME280;4748;50.802;7.132;2022-09-12T15:23:11;100649.78;;;26.10;63.25
9419;BME280;4748;50.802;7.132;2022-09-12T15:25:39;100649.13;;;25.96;65.82
9419;BME280;4748;50.802;7.132;2022-09-12T15:28:16;100648.16;;;26.00;61.42
9419;BME280;4748;50.802;7.132;2022-09-12T15:30:42;100651.56;;;26.06;67.25
9419;BME280;4748;50.802;7.132;2022-09-12T15:33:09;100648.00;;;26.05;66.15
9419;BME280;4748;50.802;7.132;2022-09-12T15:35:35;100645.59;;;26.04;66.86
9419;BME280;4748;50.802;7.132;2022-09-12T15:38:01;100653.31;;;26.02;66.66
9419;BME280;4748;50.802;7.132;2022-09-12T15:40:27;100643.47;;;26.01;66.63
9419;BME280;4748;50.802;7.132;2022-09-12T15:42:52;100646.56;;;26.08;66.19
9419;BME280;4748;50.802;7.132;2022-09-12T15:45:21;100635.59;;;26.08;64.18
9419;BME280;4748;50.802;7.132;2022-09-12T15:47:47;100636.84;;;26.02;67.55
9419;BME280;4748;50.802;7.132;2022-09-12T15:50:13;100635.72;;;26.03;66.88
9419;BME280;4748;50.802;7.132;2022-09-12T15:52:39;100630.72;;;26.05;67.17
9419;BME280;4748;50.802;7.132;2022-09-12T15:55:14;100632.19;;;26.02;65.88
9419;BME280;4748;50.802;7.132;2022-09-12T15:57:40;100625.06;;;26.01;68.39
9419;BME280;4748;50.802;7.132;2022-09-12T16:00:06;100626.84;;;25.97;69.03
9419;BME280;4748;50.802;7.132;2022-09-12T16:02:32;100618.91;;;25.96;68.72
9419;BME280;4748;50.802;7.132;2022-09-12T16:04:57;100618.59;;;25.97;67.53
9419;BME280;4748;50.802;7.132;2022-09-12T16:07:22;100622.16;;;25.98;67.38
9419;BME280;4748;50.802;7.132;2022-09-12T16:09:48;100618.09;;;25.78;63.93
9419;BME280;4748;50.802;7.132;2022-09-12T16:12:15;100618.25;;;25.82;69.13
9419;BME280;4748;50.802;7.132;2022-09-12T16:14:40;100611.63;;;25.74;69.08
9419;BME280;4748;50.802;7.132;2022-09-12T16:17:05;100611.47;;;25.71;69.89
9419;BME280;4748;50.802;7.132;2022-09-12T16:19:31;100607.75;;;25.67;70.72
9419;BME280;4748;50.802;7.132;2022-09-12T16:21:57;100613.97;;;25.59;71.01
9419;BME280;4748;50.802;7.132;2022-09-12T16:24:22;100609.47;;;25.63;70.53
9419;BME280;4748;50.802;7.132;2022-09-12T16:26:47;100604.16;;;25.58;71.37
9419;BME280;4748;50.802;7.132;2022-09-12T16:29:13;100603.63;;;25.56;71.67
9419;BME280;4748;50.802;7.132;2022-09-12T16:31:38;100598.63;;;25.50;72.50
9419;BME280;4748;50.802;7.132;2022-09-12T16:34:04;100594.59;;;25.47;72.31
9419;BME280;4748;50.802;7.132;2022-09-12T16:36:29;100601.69;;;25.40;71.86
9419;BME280;4748;50.802;7.132;2022-09-12T16:38:55;100605.56;;;25.47;72.14
9419;BME280;4748;50.802;7.132;2022-09-12T16:41:22;100595.56;;;25.43;73.03
9419;BME280;4748;50.802;7.132;2022-09-12T16:43:52;100594.59;;;25.47;73.17
9419;BME280;4748;50.802;7.132;2022-09-12T16:46:23;100591.69;;;25.52;69.85
9419;BME280;4748;50.802;7.132;2022-09-12T16:48:52;100577.81;;;25.49;72.65
9419;BME280;4748;50.802;7.132;2022-09-12T16:51:23;100573.75;;;25.46;70.47
9419;BME280;4748;50.802;7.132;2022-09-12T16:53:50;100561.69;;;25.47;73.67
9419;BME280;4748;50.802;7.132;2022-09-12T16:56:16;100566.19;;;25.43;73.24
9419;BME280;4748;50.802;7.132;2022-09-12T16:58:41;100578.25;;;25.34;73.05
9419;BME280;4748;50.802;7.132;2022-09-12T17:01:25;100585.31;;;25.26;73.57
9419;BME280;4748;50.802;7.132;2022-09-12T17:03:55;100587.88;;;25.15;71.71
9419;BME280;4748;50.802;7.132;2022-09-12T17:06:21;100593.00;;;25.08;74.24
9419;BME280;4748;50.802;7.132;2022-09-12T17:08:48;100580.34;;;24.98;74.87
9419;BME280;4748;50.802;7.132;2022-09-12T17:13:51;100566.28;;;24.91;74.28
9419;BME280;4748;50.802;7.132;2022-09-12T17:16:17;100575.09;;;24.80;75.20
9419;BME280;4748;50.802;7.132;2022-09-12T17:18:44;100571.38;;;24.76;75.60
9419;BME280;4748;50.802;7.132;2022-09-12T17:21:10;100573.72;;;24.61;76.27
9419;BME280;4748;50.802;7.132;2022-09-12T17:23:36;100573.13;;;24.50;76.79
9419;BME280;4748;50.802;7.132;2022-09-12T17:26:01;100577.03;;;24.49;76.65
9419;BME280;4748;50.802;7.132;2022-09-12T17:28:27;100575.03;;;24.41;77.09
9419;BME280;4748;50.802;7.132;2022-09-12T17:30:57;100565.91;;;24.32;77.39
9419;BME280;4748;50.802;7.132;2022-09-12T17:33:23;100571.13;;;24.20;77.98
9419;BME280;4748;50.802;7.132;2022-09-12T17:35:49;100568.78;;;24.06;79.55
9419;BME280;4748;50.802;7.132;2022-09-12T17:38:14;100568.31;;;23.90;80.18
9419;BME280;4748;50.802;7.132;2022-09-12T17:40:40;100567.00;;;23.88;79.46
9419;BME280;4748;50.802;7.132;2022-09-12T17:43:06;100558.72;;;23.79;80.65
9419;BME280;4748;50.802;7.132;2022-09-12T17:45:31;100560.88;;;23.69;80.46
9419;BME280;4748;50.802;7.132;2022-09-12T17:47:57;100564.28;;;23.61;80.39
9419;BME280;4748;50.802;7.132;2022-09-12T17:50:23;100572.94;;;23.55;80.69
9419;BME280;4748;50.802;7.132;2022-09-12T17:52:48;100572.66;;;23.43;81.25
9419;BME280;4748;50.802;7.132;2022-09-12T17:55:14;100576.09;;;23.35;81.84
9419;BME280;4748;50.802;7.132;2022-09-12T17:57:40;100576.09;;;23.21;82.44
9419;BME280;4748;50.802;7.132;2022-09-12T18:00:06;100567.81;;;23.13;82.74
9419;BME280;4748;50.802;7.132;2022-09-12T18:02:33;100581.38;;;23.05;83.59
9419;BME280;4748;50.802;7.132;2022-09-12T18:04:58;100577.63;;;23.01;82.58
9419;BME280;4748;50.802;7.132;2022-09-12T18:07:24;100575.25;;;22.94;83.11
9419;BME280;4748;50.802;7.132;2022-09-12T18:09:50;100580.09;;;22.84;83.89
9419;BME280;4748;50.802;7.132;2022-09-12T18:12:16;100575.25;;;22.81;83.98
9419;BME280;4748;50.802;7.132;2022-09-12T18:14:42;100583.50;;;22.76;83.55
9419;BME280;4748;50.802;7.132;2022-09-12T18:17:08;100574.41;;;22.67;84.12
9419;BME280;4748;50.802;7.132;2022-09-12T18:19:36;100577.81;;;22.59;84.39
9419;BME280;4748;50.802;7.132;2022-09-12T18:22:03;100583.97;;;22.51;85.33
9419;BME280;4748;50.802;7.132;2022-09-12T18:24:30;100592.34;;;22.41;85.63
9419;BME280;4748;50.802;7.132;2022-09-12T18:26:56;100582.63;;;22.35;85.26
9419;BME280;4748;50.802;7.132;2022-09-12T18:29:21;100575.91;;;22.28;86.21
9419;BME280;4748;50.802;7.132;2022-09-12T18:31:47;100572.16;;;22.24;86.36
9419;BME280;4748;50.802;7.132;2022-09-12T18:34:15;100579.00;;;22.21;86.03
9419;BME280;4748;50.802;7.132;2022-09-12T18:36:45;100572.59;;;22.12;86.70
9419;BME280;4748;50.802;7.132;2022-09-12T18:39:11;100568.00;;;22.08;87.01
9419;BME280;4748;50.802;7.132;2022-09-12T18:41:38;100566.16;;;22.03;87.26
9419;BME280;4748;50.802;7.132;2022-09-12T18:44:05;100558.09;;;21.99;87.18
9419;BME280;4748;50.802;7.132;2022-09-12T18:46:32;100561.41;;;21.96;87.58
9419;BME280;4748;50.802;7.132;2022-09-12T18:48:58;100574.59;;;21.89;88.10
9419;BME280;4748;50.802;7.132;2022-09-12T18:51:25;100572.47;;;21.86;88.42
9419;BME280;4748;50.802;7.132;2022-09-12T18:53:57;100569.59;;;21.77;88.94
9419;BME280;4748;50.802;7.132;2022-09-12T18:56:25;100571.28;;;21.73;88.99
9419;BME280;4748;50.802;7.132;2022-09-12T18:58:52;100579.81;;;21.67;88.56
9419;BME280;4748;50.802;7.132;2022-09-12T19:01:26;100568.75;;;21.58;89.78
9419;BME280;4748;50.802;7.132;2022-09-12T19:03:52;100571.56;;;21.53;90.00
9419;BME280;4748;50.802;7.132;2022-09-12T19:06:23;100571.91;;;21.47;91.17
9419;BME280;4748;50.802;7.132;2022-09-12T19:08:50;100570.31;;;21.41;91.39